Time;durP1;ratioP1;P1;durP2;ratioP2;P2;SDS_P1;SDS_P2;PMS_P1;PMS_P2;Temp;Humidity;BMP_temperature;BMP_pressure;BME280_temperature;BME280_humidity;BME280_pressure;Samples;Min_cycle;Max_cycle;Signal;HPM_P1;HPM_P2
2023/08/29 00:01:50;;;;;;;310.77;299.30;;;;;;;23.16;59.66;97989.25;4926608;28;102921;-73
2023/08/29 00:04:18;;;;;;;289.23;278.50;;;;;;;23.12;59.18;97989.88;4927663;28;103780;-73
2023/08/29 00:06:47;;;;;;;275.90;265.85;;;;;;;23.10;59.58;97992.81;4927388;28;103559;-74
2023/08/29 00:09:15;;;;;;;256.00;246.88;;;;;;;22.96;60.68;97996.53;4927881;28;103107;-75
2023/08/29 00:11:43;;;;;;;231.48;223.13;;;;;;;22.82;61.57;97989.47;4927549;28;102979;-74
2023/08/29 00:14:11;;;;;;;300.70;289.83;;;;;;;22.95;61.53;97984.91;4928366;28;103943;-74
2023/08/29 00:16:39;;;;;;;332.45;320.00;;;;;;;22.85;60.27;97983.66;4927658;28;103294;-74
2023/08/29 00:19:07;;;;;;;384.70;369.88;;;;;;;23.30;59.76;97987.41;4927331;28;103233;-74
2023/08/29 00:21:34;;;;;;;281.55;271.20;;;;;;;22.72;61.44;97984.47;4926747;28;102602;-74
2023/08/29 00:24:04;;;;;;;282.27;271.90;;;;;;;23.00;61.17;97976.22;4927353;28;103447;-74
2023/08/29 00:26:32;;;;;;;280.95;270.75;;;;;;;23.03;60.24;97975.78;4909603;28;104039;-74
2023/08/29 00:29:00;;;;;;;305.80;294.65;;;;;;;23.25;59.97;97979.09;4927700;28;103026;-74
2023/08/29 00:31:28;;;;;;;307.38;296.17;;;;;;;23.11;60.41;97972.88;4925720;28;102605;-74
2023/08/29 00:33:56;;;;;;;269.83;259.97;;;;;;;23.12;60.01;97969.19;4927708;28;102824;-74
2023/08/29 00:36:23;;;;;;;327.25;315.00;;;;;;;23.17;59.90;97972.06;4925858;28;103254;-73
2023/08/29 00:38:54;;;;;;;310.05;298.50;;;;;;;23.21;59.65;97978.72;4922294;28;103124;-74
2023/08/29 00:41:23;;;;;;;261.83;252.43;;;;;;;23.00;60.09;97978.91;4923136;28;102619;-74
2023/08/29 00:43:51;;;;;;;316.63;305.08;;;;;;;23.23;59.93;97989.28;4907221;28;103388;-74
2023/08/29 00:46:20;;;;;;;268.90;259.35;;;;;;;22.98;61.09;97986.38;4907390;28;103378;-74
2023/08/29 00:48:49;;;;;;;263.67;254.18;;;;;;;22.63;60.50;97992.88;4908084;28;103038;-73
2023/08/29 00:51:18;;;;;;;312.77;301.40;;;;;;;23.04;60.42;97993.63;4921910;28;102818;-74
2023/08/29 00:53:46;;;;;;;293.25;282.55;;;;;;;23.09;60.28;97991.13;4925996;28;103608;-74
2023/08/29 00:56:17;;;;;;;298.83;287.73;;;;;;;22.74;60.77;97992.31;4925178;28;103267;-74
2023/08/29 00:58:47;;;;;;;304.23;292.95;;;;;;;22.98;60.98;97991.75;4926948;28;103163;-74
2023/08/29 01:01:16;;;;;;;371.75;357.73;;;;;;;23.30;59.70;97988.22;4926400;28;102540;-74
2023/08/29 01:03:45;;;;;;;326.15;314.00;;;;;;;23.24;60.06;97986.38;4910161;28;103970;-73
2023/08/29 01:06:15;;;;;;;313.35;301.90;;;;;;;23.11;60.51;97983.66;4927069;28;103220;-74
2023/08/29 01:08:44;;;;;;;277.20;267.05;;;;;;;23.09;60.78;97988.44;4926582;28;103209;-74
2023/08/29 01:11:16;;;;;;;233.57;224.98;;;;;;;22.13;64.05;97984.25;4909838;28;102656;-74
2023/08/29 01:13:55;;;;;;;292.65;281.85;;;;;;;22.60;61.88;97982.56;4909130;28;102615;-74
2023/08/29 01:16:32;;;;;;;348.02;335.02;;;;;;;23.03;60.70;97986.56;4924774;28;103374;-74
2023/08/29 01:19:04;;;;;;;339.63;326.98;;;;;;;23.25;60.05;97979.94;4909511;28;103194;-74
2023/08/29 01:21:47;;;;;;;343.05;330.25;;;;;;;23.10;59.82;97982.03;4927008;28;102554;-74
2023/08/29 01:24:24;;;;;;;287.25;276.70;;;;;;;22.61;61.27;97984.19;4926999;28;102824;-74
2023/08/29 01:26:55;;;;;;;272.98;262.95;;;;;;;22.78;61.52;97988.19;4925727;28;103206;-74
2023/08/29 01:29:25;;;;;;;263.13;253.50;;;;;;;22.64;62.38;97981.13;4927276;28;102996;-74
2023/08/29 01:31:53;;;;;;;278.37;268.17;;;;;;;22.61;64.05;97984.19;4926944;28;103058;-74
2023/08/29 01:34:21;;;;;;;308.80;297.40;;;;;;;22.98;61.93;97980.97;4926410;28;102883;-74
2023/08/29 01:36:49;;;;;;;298.95;287.83;;;;;;;22.93;61.91;97986.16;4925299;28;103280;-74
2023/08/29 01:39:17;;;;;;;323.17;310.73;;;;;;;23.09;60.85;97985.75;4921519;28;103738;-74
2023/08/29 01:41:45;;;;;;;268.90;258.90;;;;;;;22.77;62.39;97987.38;4922052;28;102544;-74
2023/08/29 01:44:14;;;;;;;289.08;278.15;;;;;;;22.92;62.63;97985.31;4915684;28;102993;-74
2023/08/29 01:46:42;;;;;;;340.67;327.58;;;;;;;23.02;61.25;97980.34;4925407;28;103450;-74
2023/08/29 01:49:10;;;;;;;389.38;374.42;;;;;;;23.24;60.66;97977.47;4908976;28;103363;-74
2023/08/29 01:51:40;;;;;;;370.90;356.83;;;;;;;23.11;60.96;97978.28;4924127;28;102905;-74
2023/08/29 01:54:08;;;;;;;332.80;320.45;;;;;;;22.57;62.41;97982.97;4909934;28;102628;-74
2023/08/29 01:56:40;;;;;;;378.60;364.42;;;;;;;23.10;61.29;97976.63;4909188;28;104114;-74
2023/08/29 01:59:09;;;;;;;309.67;298.30;;;;;;;22.76;62.71;97974.97;4925042;28;103054;-74
2023/08/29 02:01:39;;;;;;;336.23;323.70;;;;;;;22.92;62.49;97974.56;4925012;28;102531;-74
2023/08/29 02:04:07;;;;;;;381.90;367.20;;;;;;;23.23;60.53;97973.94;4925244;28;102982;-74
2023/08/29 02:06:40;;;;;;;370.80;356.47;;;;;;;23.22;61.25;97968.72;4909915;28;102989;-74
2023/08/29 02:09:10;;;;;;;385.80;370.95;;;;;;;23.35;60.53;97971.44;4924772;28;103133;-74
2023/08/29 02:11:38;;;;;;;353.08;339.75;;;;;;;23.33;60.65;97968.94;4925769;28;102586;-74
2023/08/29 02:14:07;;;;;;;332.02;319.83;;;;;;;22.82;61.14;97973.31;4926202;28;103316;-73
2023/08/29 02:16:36;;;;;;;325.60;313.50;;;;;;;23.03;61.49;97962.31;4923231;28;103449;-74
2023/08/29 02:19:05;;;;;;;306.92;295.90;;;;;;;22.76;61.97;97960.66;4926031;28;103135;-74
2023/08/29 02:21:33;;;;;;;355.65;342.98;;;;;;;23.03;60.72;97954.25;4924794;28;102607;-74
2023/08/29 02:24:03;;;;;;;322.67;311.13;;;;;;;22.81;61.04;97956.31;4926563;28;103858;-74
2023/08/29 02:26:31;;;;;;;342.08;329.92;;;;;;;23.06;60.77;97945.75;4928186;28;104036;-74
2023/08/29 02:28:59;;;;;;;337.58;325.42;;;;;;;23.24;60.76;97955.91;4928266;28;103122;-74
2023/08/29 02:31:27;;;;;;;350.85;337.85;;;;;;;23.23;59.97;97952.38;4927812;28;102566;-74
2023/08/29 02:33:55;;;;;;;309.90;298.58;;;;;;;23.11;60.08;97943.25;4927651;28;103184;-74
2023/08/29 02:36:24;;;;;;;306.27;295.10;;;;;;;23.21;60.58;97946.38;4927554;28;103965;-74
2023/08/29 02:38:53;;;;;;;293.73;282.98;;;;;;;22.64;61.94;97948.84;4924193;28;103324;-73
2023/08/29 02:41:21;;;;;;;263.10;253.60;;;;;;;22.98;61.85;97954.88;4907632;28;103306;-74
2023/08/29 02:43:49;;;;;;;271.40;261.63;;;;;;;22.90;62.02;97941.63;4916308;28;102927;-74
2023/08/29 02:46:17;;;;;;;219.10;210.98;;;;;;;22.17;63.56;97947.03;4928037;28;103287;-74
2023/08/29 02:48:45;;;;;;;230.60;222.15;;;;;;;22.70;62.88;97948.00;4929723;28;103221;-74
2023/08/29 02:51:13;;;;;;;215.30;207.40;;;;;;;22.57;62.01;97942.59;4929200;28;102741;-74
2023/08/29 02:53:42;;;;;;;267.48;257.83;;;;;;;23.01;61.93;97934.78;4928413;28;102836;-74
2023/08/29 02:56:10;;;;;;;316.90;305.33;;;;;;;23.26;60.75;97938.50;4928682;28;103362;-74
2023/08/29 02:58:38;;;;;;;256.40;247.03;;;;;;;22.63;61.93;97937.19;4928928;28;103161;-74
2023/08/29 03:01:11;;;;;;;264.05;254.45;;;;;;;22.91;62.20;97942.44;4927120;28;102604;-74
2023/08/29 03:03:39;;;;;;;260.30;250.88;;;;;;;23.09;61.42;97931.88;4927400;28;102705;-74
2023/08/29 03:06:07;;;;;;;269.48;259.70;;;;;;;23.02;61.54;97936.41;4926457;28;104199;-74
2023/08/29 03:08:35;;;;;;;276.58;266.55;;;;;;;23.13;62.36;97943.88;4910666;28;103420;-74
2023/08/29 03:11:05;;;;;;;261.53;252.13;;;;;;;23.05;62.10;97946.78;4927937;28;103256;-74
2023/08/29 03:13:33;;;;;;;237.30;228.60;;;;;;;22.69;64.58;97943.66;4927694;28;102863;-74
2023/08/29 03:16:01;;;;;;;227.10;218.57;;;;;;;22.63;64.42;97937.19;4927543;28;104526;-74
2023/08/29 03:18:29;;;;;;;275.83;265.60;;;;;;;23.21;62.48;97941.00;4926775;28;104121;-74
2023/08/29 03:21:00;;;;;;;323.27;311.30;;;;;;;23.44;61.41;97930.59;4928619;28;102769;-74
2023/08/29 03:23:29;;;;;;;243.18;234.15;;;;;;;22.96;62.69;97926.50;4923938;28;102853;-74
2023/08/29 03:26:03;;;;;;;273.15;263.00;;;;;;;22.80;62.85;97932.28;4907379;28;103530;-73
2023/08/29 03:28:32;;;;;;;294.90;284.00;;;;;;;23.01;61.73;97918.63;4927129;28;103183;-74
2023/08/29 03:31:11;;;;;;;268.77;258.75;;;;;;;22.86;62.66;97921.50;4909874;28;103445;-74
2023/08/29 03:33:39;;;;;;;279.25;268.95;;;;;;;22.85;61.29;97921.72;4928463;28;103403;-74
2023/08/29 03:36:08;;;;;;;336.73;324.30;;;;;;;23.28;60.78;97925.63;4927593;28;104527;-74
2023/08/29 03:38:36;;;;;;;314.38;302.90;;;;;;;23.19;61.14;97915.25;4911300;28;103245;-74
2023/08/29 03:41:05;;;;;;;343.70;330.83;;;;;;;23.40;60.97;97913.22;4927366;28;103184;-74
2023/08/29 03:43:35;;;;;;;329.05;316.83;;;;;;;23.10;61.25;97918.19;4926827;28;102676;-74
2023/08/29 03:46:05;;;;;;;269.65;259.98;;;;;;;23.07;62.22;97918.59;4910911;28;103850;-74
2023/08/29 03:48:33;;;;;;;294.25;283.52;;;;;;;23.19;61.78;97910.72;4927876;28;103124;-74
2023/08/29 03:51:06;;;;;;;306.95;295.80;;;;;;;23.10;62.20;97917.38;4927838;28;102518;-74
2023/08/29 03:53:34;;;;;;;303.38;292.33;;;;;;;22.93;61.40;97913.44;4928040;28;103916;-74
2023/08/29 03:56:03;;;;;;;270.67;260.93;;;;;;;22.75;62.94;97908.66;4908829;28;103268;-74
2023/08/29 03:58:31;;;;;;;248.57;239.55;;;;;;;22.38;63.44;97912.72;4926368;28;102770;-74
2023/08/29 04:01:03;;;;;;;285.70;275.23;;;;;;;22.88;62.52;97911.34;4926463;28;102882;-74
2023/08/29 04:03:32;;;;;;;296.70;285.67;;;;;;;22.35;63.56;97906.91;4911470;28;104130;-74
2023/08/29 04:06:03;;;;;;;308.20;296.90;;;;;;;22.94;62.45;97912.38;4925705;28;103317;-74
2023/08/29 04:08:31;;;;;;;295.73;284.83;;;;;;;22.98;62.36;97908.25;4926250;28;103215;-74
2023/08/29 04:11:03;;;;;;;303.37;292.27;;;;;;;23.08;62.02;97909.50;4910319;28;103237;-74
2023/08/29 04:13:33;;;;;;;326.27;314.20;;;;;;;23.20;61.43;97917.78;4927050;28;103309;-74
2023/08/29 04:16:03;;;;;;;275.45;265.27;;;;;;;22.72;62.53;97908.25;4927516;28;103209;-74
2023/08/29 04:18:34;;;;;;;290.60;279.95;;;;;;;23.18;62.64;97914.47;4910117;28;102591;-74
2023/08/29 04:21:02;;;;;;;305.70;294.38;;;;;;;23.29;61.35;97919.22;4926450;28;102550;-74
2023/08/29 04:23:30;;;;;;;335.40;322.92;;;;;;;23.31;61.29;97921.69;4927052;28;102951;-74
2023/08/29 04:25:59;;;;;;;290.55;279.90;;;;;;;23.11;61.93;97908.25;4926618;28;103365;-74
2023/08/29 04:28:27;;;;;;;310.38;298.95;;;;;;;23.13;62.49;97913.44;4926134;28;103342;-74
2023/08/29 04:30:57;;;;;;;252.00;242.60;;;;;;;22.72;63.32;97922.53;4910013;28;102603;-74
2023/08/29 04:33:27;;;;;;;276.52;266.33;;;;;;;23.04;62.44;97912.81;4909392;28;104020;-74
2023/08/29 04:35:54;;;;;;;278.85;268.65;;;;;;;22.98;62.77;97908.25;4927218;28;103251;-74
2023/08/29 04:38:22;;;;;;;270.27;260.25;;;;;;;22.78;63.22;97916.34;4925161;28;103478;-73
2023/08/29 04:40:53;;;;;;;280.85;270.33;;;;;;;23.13;62.47;97919.63;4925144;28;102628;-74
2023/08/29 04:43:21;;;;;;;262.80;252.93;;;;;;;23.07;62.67;97909.72;4927220;28;102883;-74
2023/08/29 04:45:53;;;;;;;292.67;281.80;;;;;;;23.17;62.81;97917.34;4908282;28;103740;-74
2023/08/29 04:48:21;;;;;;;301.05;289.75;;;;;;;23.31;61.96;97919.00;4908508;28;104332;-74
2023/08/29 04:50:50;;;;;;;275.73;265.38;;;;;;;22.97;63.27;97920.06;4916110;28;102749;-74
2023/08/29 04:53:18;;;;;;;289.00;278.23;;;;;;;23.23;62.64;97916.53;4927566;28;102624;-74
2023/08/29 04:55:48;;;;;;;300.10;288.73;;;;;;;23.23;62.03;97916.53;4925768;28;103487;-74
2023/08/29 04:58:16;;;;;;;275.08;264.85;;;;;;;23.21;62.31;97915.91;4928820;28;103202;-74
2023/08/29 05:00:44;;;;;;;268.60;258.50;;;;;;;22.81;64.21;97917.78;4934609;28;102558;-73
2023/08/29 05:03:14;;;;;;;292.87;281.87;;;;;;;22.82;63.88;97908.69;4918397;28;102854;-73
2023/08/29 05:05:46;;;;;;;233.73;224.73;;;;;;;22.27;66.23;97909.81;4933575;28;102888;-74
2023/08/29 05:08:18;;;;;;;228.93;220.20;;;;;;;22.49;65.38;97909.44;4927011;28;102564;-74
2023/08/29 05:10:47;;;;;;;236.75;227.65;;;;;;;22.60;65.59;97909.88;4924700;28;102854;-74
2023/08/29 05:13:16;;;;;;;259.73;249.73;;;;;;;22.64;64.85;97914.66;4926124;28;102848;-74
2023/08/29 05:15:45;;;;;;;213.32;205.02;;;;;;;22.68;66.26;97915.91;4910191;28;105124;-74
2023/08/29 05:18:13;;;;;;;259.75;249.90;;;;;;;23.12;64.26;97915.28;4909927;28;105458;-74
2023/08/29 05:20:41;;;;;;;209.85;201.65;;;;;;;22.36;67.60;97920.19;4926596;28;103006;-74
2023/08/29 05:23:10;;;;;;;184.10;176.52;;;;;;;21.84;69.32;97920.81;4926169;28;102778;-74
2023/08/29 05:25:41;;;;;;;181.40;173.98;;;;;;;22.31;68.00;97916.44;4930535;28;103044;-73
2023/08/29 05:28:10;;;;;;;229.18;220.20;;;;;;;23.00;64.97;97916.94;4930274;28;103271;-73
2023/08/29 05:30:38;;;;;;;196.90;189.00;;;;;;;22.24;67.01;97915.59;4935221;28;102891;-74
2023/08/29 05:33:06;;;;;;;202.35;194.18;;;;;;;22.33;66.76;97909.00;4913668;28;103542;-74
2023/08/29 05:35:34;;;;;;;192.95;184.95;;;;;;;22.42;66.90;97916.69;4907471;28;103219;-74
2023/08/29 05:38:01;;;;;;;203.23;194.93;;;;;;;22.80;65.78;97922.34;4926637;28;103362;-74
2023/08/29 05:40:29;;;;;;;197.90;189.90;;;;;;;22.81;66.21;97918.63;4922028;28;102868;-74
2023/08/29 05:43:03;;;;;;;181.45;173.98;;;;;;;22.89;66.24;97917.56;4907969;28;103655;-74
2023/08/29 05:45:33;;;;;;;161.93;155.07;;;;;;;22.65;67.49;97918.19;4906972;28;103234;-74
2023/08/29 05:48:04;;;;;;;150.80;144.43;;;;;;;22.66;67.54;97919.84;4907183;28;103139;-74
2023/08/29 05:50:33;;;;;;;145.57;139.18;;;;;;;22.77;67.47;97927.28;4905593;28;102815;-74
2023/08/29 05:53:00;;;;;;;159.27;152.48;;;;;;;22.76;67.23;97926.50;4907329;28;102681;-74
2023/08/29 05:55:28;;;;;;;149.85;143.55;;;;;;;23.00;67.01;97919.66;4906896;28;103220;-74
2023/08/29 05:57:56;;;;;;;153.93;147.47;;;;;;;22.88;66.98;97915.91;4909441;28;103269;-74
2023/08/29 06:00:25;;;;;;;148.82;142.48;;;;;;;22.22;68.52;97929.25;4915987;28;102654;-74
2023/08/29 06:02:53;;;;;;;138.05;132.15;;;;;;;22.52;69.08;97933.25;4924156;28;102730;-73
2023/08/29 06:05:21;;;;;;;140.02;134.15;;;;;;;23.02;67.34;97931.03;4933992;28;102948;-74
2023/08/29 06:07:49;;;;;;;147.90;141.63;;;;;;;23.20;65.39;97939.31;4929928;28;102497;-74
2023/08/29 06:10:20;;;;;;;164.43;157.63;;;;;;;23.49;65.40;97930.81;4930460;28;102678;-74
2023/08/29 06:12:48;;;;;;;160.75;154.05;;;;;;;23.19;65.85;97934.13;4930420;28;102563;-74
2023/08/29 06:15:18;;;;;;;156.38;149.90;;;;;;;23.10;66.52;97942.44;4930780;28;103323;-74
2023/08/29 06:17:48;;;;;;;165.10;158.30;;;;;;;23.24;66.21;97950.53;4930742;28;103467;-75
2023/08/29 06:20:16;;;;;;;191.73;183.73;;;;;;;22.91;66.77;97950.50;4930869;28;102539;-74
2023/08/29 06:22:45;;;;;;;186.60;178.70;;;;;;;23.14;66.34;97956.31;4929537;28;103864;-74
2023/08/29 06:25:12;;;;;;;178.45;170.95;;;;;;;22.75;67.59;97959.81;4928938;28;103311;-74
2023/08/29 06:27:40;;;;;;;155.77;148.90;;;;;;;22.40;69.77;97956.41;4929292;28;103366;-74
2023/08/29 06:30:12;;;;;;;151.15;144.73;;;;;;;22.84;66.93;97953.22;4930430;28;102783;-74
2023/08/29 06:32:41;;;;;;;179.77;172.23;;;;;;;22.62;67.54;97956.25;4931448;28;102591;-74
2023/08/29 06:35:11;;;;;;;144.68;138.57;;;;;;;23.11;66.16;97962.13;4932290;28;104404;-73
2023/08/29 06:37:39;;;;;;;140.80;134.60;;;;;;;22.81;66.67;97967.09;4936283;28;102940;-73
2023/08/29 06:40:10;;;;;;;126.68;121.15;;;;;;;22.70;67.78;97969.56;4937863;28;102575;-74
2023/08/29 06:42:38;;;;;;;160.98;154.23;;;;;;;23.24;66.16;97966.69;4933321;28;102951;-74
2023/08/29 06:45:08;;;;;;;170.73;163.57;;;;;;;23.35;65.68;97974.97;4929493;28;103822;-74
2023/08/29 06:47:35;;;;;;;159.43;152.43;;;;;;;23.15;66.60;97971.44;4929213;28;103509;-74
2023/08/29 06:50:04;;;;;;;184.07;176.27;;;;;;;23.31;65.45;97979.09;4928690;28;102735;-74
2023/08/29 06:52:33;;;;;;;193.17;185.27;;;;;;;23.23;65.63;97982.03;4928728;28;102804;-74
2023/08/29 06:55:03;;;;;;;194.15;186.18;;;;;;;23.36;64.86;97986.56;4927906;28;103881;-74
2023/08/29 06:57:31;;;;;;;206.05;197.65;;;;;;;23.53;64.01;97987.81;4930415;28;103292;-74
2023/08/29 07:00:00;;;;;;;209.05;200.70;;;;;;;23.67;64.31;97992.97;4932245;28;102538;-74
2023/08/29 07:02:30;;;;;;;215.50;207.00;;;;;;;23.88;63.88;97980.28;4933903;28;102745;-74
2023/08/29 07:04:58;;;;;;;175.98;168.75;;;;;;;23.61;65.25;97988.44;4934113;28;104379;-73
2023/08/29 07:07:26;;;;;;;154.15;147.65;;;;;;;22.95;68.69;97989.47;4932786;28;103336;-74
2023/08/29 07:09:55;;;;;;;153.50;147.10;;;;;;;23.51;66.57;97988.03;4929103;28;102928;-74
2023/08/29 07:12:23;;;;;;;172.23;165.02;;;;;;;23.67;65.68;97992.97;4927178;28;102785;-74
2023/08/29 07:14:53;;;;;;;165.40;158.43;;;;;;;23.20;66.54;97987.81;4909974;28;104116;-74
2023/08/29 07:17:23;;;;;;;153.25;146.77;;;;;;;22.85;67.69;97994.44;4929030;28;103188;-74
2023/08/29 07:19:51;;;;;;;169.57;162.50;;;;;;;23.31;65.97;97989.88;4928539;28;102866;-74
2023/08/29 07:22:19;;;;;;;179.35;172.02;;;;;;;23.53;65.53;97994.03;4928866;28;102827;-74
2023/08/29 07:24:51;;;;;;;161.25;154.43;;;;;;;22.82;68.18;98005.63;4910965;28;102808;-74
2023/08/29 07:27:20;;;;;;;151.65;145.10;;;;;;;22.80;68.33;97996.88;4916978;28;103337;-73
2023/08/29 07:29:49;;;;;;;127.60;122.30;;;;;;;22.18;72.08;98008.69;4929074;28;102754;-74
2023/08/29 07:32:19;;;;;;;141.60;135.70;;;;;;;22.97;67.90;98003.53;4929594;28;102510;-74
2023/08/29 07:34:47;;;;;;;145.00;138.93;;;;;;;22.75;67.92;98010.16;4911589;28;103000;-73
2023/08/29 07:37:15;;;;;;;143.30;137.40;;;;;;;22.59;68.76;98015.88;4927990;28;103282;-74
2023/08/29 07:39:43;;;;;;;141.27;135.50;;;;;;;23.08;66.48;98019.09;4927733;28;102847;-74
2023/08/29 07:42:13;;;;;;;165.95;159.18;;;;;;;23.21;66.71;98011.03;4926575;28;102706;-74
2023/08/29 07:44:42;;;;;;;150.88;144.48;;;;;;;22.40;69.64;98020.97;4928394;28;103738;-74
2023/08/29 07:47:10;;;;;;;149.13;142.82;;;;;;;22.30;69.76;98023.22;4928371;28;103371;-74
2023/08/29 07:49:43;;;;;;;134.50;128.80;;;;;;;21.51;72.20;98032.66;4911406;28;102905;-74
2023/08/29 07:52:13;;;;;;;120.60;115.60;;;;;;;22.79;69.52;98020.28;4929374;28;102775;-74
2023/08/29 07:54:41;;;;;;;130.23;124.77;;;;;;;23.26;67.70;98023.88;4932878;28;104245;-74
2023/08/29 07:57:09;;;;;;;127.97;122.78;;;;;;;23.48;67.46;98034.28;4928975;28;103275;-74
2023/08/29 07:59:38;;;;;;;124.47;119.38;;;;;;;23.12;69.28;98036.53;4928646;28;102516;-74
2023/08/29 08:02:08;;;;;;;115.33;110.53;;;;;;;23.21;69.53;98035.28;4928079;28;103435;-74
2023/08/29 08:04:35;;;;;;;126.10;120.85;;;;;;;23.13;69.15;98034.66;4927575;28;103320;-75
2023/08/29 08:07:04;;;;;;;126.80;121.60;;;;;;;23.74;67.61;98032.59;4928138;28;103404;-74
2023/08/29 08:09:31;;;;;;;127.60;122.10;;;;;;;23.32;67.92;98034.66;4927173;28;103204;-74
2023/08/29 08:12:00;;;;;;;110.13;105.53;;;;;;;22.88;71.74;98031.69;4927359;28;103006;-74
2023/08/29 08:14:28;;;;;;;110.38;105.78;;;;;;;22.93;71.70;98031.94;4926292;28;103272;-74
2023/08/29 08:16:56;;;;;;;119.93;114.95;;;;;;;23.17;69.65;98025.94;4927805;28;103249;-74
2023/08/29 08:19:25;;;;;;;120.97;115.97;;;;;;;23.58;68.68;98034.66;4928362;28;102626;-74
2023/08/29 08:21:53;;;;;;;123.03;117.78;;;;;;;23.42;68.70;98029.72;4927074;28;103959;-74
2023/08/29 08:24:21;;;;;;;128.38;123.00;;;;;;;23.94;66.86;98036.91;4926685;28;103332;-74
2023/08/29 08:26:48;;;;;;;136.15;130.32;;;;;;;23.56;66.60;98035.91;4928856;28;103193;-74
2023/08/29 08:29:16;;;;;;;124.60;119.30;;;;;;;23.69;66.89;98040.50;4926651;28;103344;-75
2023/08/29 08:31:44;;;;;;;130.25;124.82;;;;;;;23.41;68.39;98041.53;4930027;28;102647;-74
2023/08/29 08:34:12;;;;;;;132.77;127.35;;;;;;;23.26;67.92;98035.50;4927742;28;103476;-74
2023/08/29 08:36:42;;;;;;;128.85;123.35;;;;;;;23.07;69.93;98047.09;4923099;28;103164;-74
2023/08/29 08:39:10;;;;;;;108.87;104.17;;;;;;;22.69;72.30;98051.34;4914218;28;103214;-74
2023/08/29 08:41:40;;;;;;;106.00;101.40;;;;;;;22.92;70.46;98043.75;4928328;28;102916;-74
2023/08/29 08:44:10;;;;;;;105.43;101.10;;;;;;;22.85;71.73;98043.72;4910460;28;104515;-75
2023/08/29 08:46:39;;;;;;;113.00;108.30;;;;;;;22.87;71.95;98047.06;4928446;28;103149;-74
2023/08/29 08:49:07;;;;;;;107.25;102.95;;;;;;;23.02;73.21;98044.16;4927709;28;102778;-74
2023/08/29 08:51:37;;;;;;;103.45;99.25;;;;;;;23.62;69.76;98041.31;4927893;28;102749;-74
2023/08/29 08:54:07;;;;;;;109.32;104.65;;;;;;;23.06;70.39;98051.66;4927313;28;103323;-74
2023/08/29 08:56:36;;;;;;;142.20;136.23;;;;;;;22.86;72.90;98048.06;4929380;28;103517;-74
2023/08/29 08:59:04;;;;;;;172.15;164.93;;;;;;;23.72;69.89;98050.84;4930941;28;102891;-75
2023/08/29 09:01:32;;;;;;;184.53;176.87;;;;;;;23.73;69.55;98045.25;4935643;28;102852;-74
2023/08/29 09:04:00;;;;;;;200.83;192.53;;;;;;;23.80;69.12;98053.34;4930026;28;103299;-74
2023/08/29 09:06:28;;;;;;;195.80;187.50;;;;;;;23.45;69.69;98050.88;4927126;28;103199;-74
2023/08/29 09:08:57;;;;;;;213.48;204.70;;;;;;;23.99;68.29;98052.47;4927859;28;102809;-74
2023/08/29 09:11:26;;;;;;;229.20;219.88;;;;;;;23.26;70.57;98057.06;4926465;28;104042;-74
2023/08/29 09:13:54;;;;;;;195.45;187.25;;;;;;;23.08;71.38;98054.13;4926845;28;103849;-74
2023/08/29 09:16:23;;;;;;;156.73;150.10;;;;;;;23.48;70.37;98058.53;4927026;28;102834;-74
2023/08/29 09:18:51;;;;;;;136.27;130.47;;;;;;;22.70;73.00;98061.09;4926698;28;102815;-74
2023/08/29 09:21:21;;;;;;;155.45;148.75;;;;;;;21.70;75.77;98047.25;4926524;28;102585;-74
2023/08/29 09:23:50;;;;;;;135.80;129.95;;;;;;;22.99;73.80;98041.88;4927817;28;103711;-74
2023/08/29 09:26:18;;;;;;;142.27;136.23;;;;;;;23.78;70.32;98050.81;4928345;28;103362;-73
2023/08/29 09:28:48;;;;;;;129.93;124.43;;;;;;;22.94;74.75;98050.56;4931760;28;102431;-73
2023/08/29 09:31:17;;;;;;;133.70;127.90;;;;;;;22.56;75.63;98060.19;4935838;28;102574;-74
2023/08/29 09:33:47;;;;;;;126.05;120.68;;;;;;;23.23;72.83;98060.16;4928688;28;103274;-74
2023/08/29 09:36:15;;;;;;;131.77;126.20;;;;;;;23.09;73.16;98055.78;4928439;28;103297;-75
2023/08/29 09:38:43;;;;;;;137.47;131.60;;;;;;;23.72;70.94;98057.06;4927005;28;103006;-75
2023/08/29 09:41:14;;;;;;;170.70;163.43;;;;;;;22.98;70.89;98067.16;4927090;28;102961;-75
2023/08/29 09:43:49;;;;;;;158.35;151.70;;;;;;;22.87;74.00;98055.13;4920458;28;103314;-75
2023/08/29 09:46:21;;;;;;;160.40;153.70;;;;;;;23.57;71.83;98061.84;4907742;28;102981;-75
2023/08/29 09:48:55;;;;;;;179.43;171.77;;;;;;;23.32;71.25;98067.00;4907369;28;102825;-74
2023/08/29 09:51:25;;;;;;;171.70;164.35;;;;;;;24.04;68.65;98063.44;4922043;28;103759;-74
2023/08/29 09:53:57;;;;;;;158.27;151.47;;;;;;;24.28;68.35;98062.75;4925974;28;104005;-75
2023/08/29 09:56:28;;;;;;;156.30;149.52;;;;;;;24.03;70.41;98065.31;4925886;28;103190;-74
2023/08/29 09:59:02;;;;;;;139.20;133.20;;;;;;;24.09;70.90;98063.63;4926526;28;102533;-74
2023/08/29 10:01:30;;;;;;;117.07;111.97;;;;;;;23.84;70.56;98060.78;4927552;28;102597;-74
2023/08/29 10:04:06;;;;;;;133.02;127.38;;;;;;;24.10;72.18;98059.94;4926319;28;103469;-74
2023/08/29 10:06:37;;;;;;;96.50;92.30;;;;;;;22.67;72.48;98053.41;4909391;28;103713;-74
2023/08/29 10:09:06;;;;;;;99.50;95.28;;;;;;;22.85;74.62;98059.06;4908235;28;102642;-74
2023/08/29 10:11:35;;;;;;;144.77;138.80;;;;;;;23.90;68.65;98051.84;4926700;28;103911;-74
2023/08/29 10:14:22;;;;;;;126.63;121.38;;;;;;;24.73;66.19;98059.06;4926172;28;103221;-74
2023/08/29 10:16:50;;;;;;;118.17;113.10;;;;;;;24.20;66.29;98061.13;4925162;28;103753;-74
2023/08/29 10:19:21;;;;;;;93.88;89.88;;;;;;;23.48;73.01;98061.22;4909462;28;102663;-74
2023/08/29 10:21:53;;;;;;;84.07;80.57;;;;;;;24.16;69.98;98059.09;4927069;28;104111;-73
2023/08/29 10:24:22;;;;;;;115.90;110.97;;;;;;;23.76;68.96;98068.25;4928863;28;102418;-74
2023/08/29 10:26:51;;;;;;;113.63;108.93;;;;;;;24.25;68.55;98065.91;4926600;28;103265;-75
2023/08/29 10:29:19;;;;;;;150.45;143.90;;;;;;;24.05;67.69;98065.09;4926220;28;102772;-74
2023/08/29 10:31:49;;;;;;;135.73;130.00;;;;;;;23.79;68.24;98063.28;4926731;28;102614;-75
2023/08/29 10:34:19;;;;;;;130.25;124.85;;;;;;;24.13;67.81;98070.31;4924760;28;104489;-75
2023/08/29 10:36:47;;;;;;;132.63;127.00;;;;;;;23.95;68.19;98062.00;4925714;28;103745;-75
2023/08/29 10:39:15;;;;;;;143.43;137.40;;;;;;;24.71;65.99;98058.44;4925966;28;102898;-75
2023/08/29 10:41:47;;;;;;;126.78;121.35;;;;;;;24.66;66.21;98060.13;4924884;28;102729;-75
2023/08/29 10:44:35;;;;;;;129.60;123.90;;;;;;;24.64;67.21;98052.25;4921536;28;103548;-74
2023/08/29 10:47:26;;;;;;;126.57;121.22;;;;;;;23.49;69.36;98052.13;4908954;28;103242;-74
2023/08/29 10:49:58;;;;;;;112.47;107.78;;;;;;;23.39;70.24;98051.69;4910487;28;102851;-75
2023/08/29 10:52:37;;;;;;;105.03;100.60;;;;;;;23.89;70.44;98052.06;4929807;28;103475;-74
2023/08/29 10:55:08;;;;;;;107.65;102.72;;;;;;;23.42;69.62;98048.59;4930507;28;103274;-75
2023/08/29 10:57:37;;;;;;;100.88;96.47;;;;;;;23.02;72.78;98050.38;4932254;28;102630;-74
2023/08/29 11:00:16;;;;;;;100.00;95.80;;;;;;;23.42;70.93;98051.28;4934494;28;102518;-75
2023/08/29 11:02:47;;;;;;;89.32;85.38;;;;;;;24.61;68.74;98046.47;4929249;28;102876;-74
2023/08/29 11:05:16;;;;;;;96.30;92.20;;;;;;;25.26;65.91;98046.06;4911707;28;104403;-75